sensor_id;sensor_type;location;lat;lon;timestamp;pressure;altitude;pressure_sealevel;temperature;humidity
70009;BME280;59542;37.950;-122.338;2023-11-19T00:00:58;101320.69;;;16.95;100.00
70009;BME280;59542;37.950;-122.338;2023-11-19T00:03:24;101321.75;;;16.94;100.00
70009;BME280;59542;37.950;-122.338;2023-11-19T00:05:50;101321.38;;;17.02;100.00
70009;BME280;59542;37.950;-122.338;2023-11-19T00:08:16;101316.69;;;16.98;100.00
70009;BME280;59542;37.950;-122.338;2023-11-19T00:10:42;101314.47;;;16.95;100.00
70009;BME280;59542;37.950;-122.338;2023-11-19T00:13:09;101326.00;;;16.90;100.00
70009;BME280;59542;37.950;-122.338;2023-11-19T00:15:36;101325.41;;;16.88;100.00
70009;BME280;59542;37.950;-122.338;2023-11-19T00:18:02;101327.06;;;16.77;100.00
70009;BME280;59542;37.950;-122.338;2023-11-19T00:20:31;101326.13;;;16.72;100.00
70009;BME280;59542;37.950;-122.338;2023-11-19T00:22:57;101324.56;;;16.76;100.00
70009;BME280;59542;37.950;-122.338;2023-11-19T00:25:24;101321.53;;;16.72;100.00
70009;BME280;59542;37.950;-122.338;2023-11-19T00:27:51;101322.31;;;16.61;100.00
70009;BME280;59542;37.950;-122.338;2023-11-19T00:30:19;101319.63;;;16.61;100.00
70009;BME280;59542;37.950;-122.338;2023-11-19T00:32:45;101320.19;;;16.51;100.00
70009;BME280;59542;37.950;-122.338;2023-11-19T00:35:11;101327.59;;;16.56;100.00
70009;BME280;59542;37.950;-122.338;2023-11-19T00:37:39;101327.59;;;16.44;100.00
70009;BME280;59542;37.950;-122.338;2023-11-19T00:40:06;101326.78;;;16.44;100.00
70009;BME280;59542;37.950;-122.338;2023-11-19T00:42:32;101331.44;;;16.36;100.00
70009;BME280;59542;37.950;-122.338;2023-11-19T00:44:59;101341.19;;;16.37;100.00
70009;BME280;59542;37.950;-122.338;2023-11-19T00:47:27;101343.06;;;16.37;100.00
70009;BME280;59542;37.950;-122.338;2023-11-19T00:49:53;101346.94;;;16.29;100.00
70009;BME280;59542;37.950;-122.338;2023-11-19T00:52:20;101353.75;;;16.32;100.00
70009;BME280;59542;37.950;-122.338;2023-11-19T00:54:47;101365.13;;;16.22;100.00
70009;BME280;59542;37.950;-122.338;2023-11-19T00:57:13;101360.53;;;16.23;100.00
70009;BME280;59542;37.950;-122.338;2023-11-19T00:59:43;101368.53;;;16.18;100.00
70009;BME280;59542;37.950;-122.338;2023-11-19T01:02:09;101356.66;;;16.19;100.00
70009;BME280;59542;37.950;-122.338;2023-11-19T01:04:36;101360.22;;;16.31;100.00
70009;BME280;59542;37.950;-122.338;2023-11-19T01:07:03;101364.44;;;16.27;100.00
70009;BME280;59542;37.950;-122.338;2023-11-19T01:09:32;101359.16;;;16.32;100.00
70009;BME280;59542;37.950;-122.338;2023-11-19T01:12:01;101377.84;;;16.33;100.00
70009;BME280;59542;37.950;-122.338;2023-11-19T01:14:28;101380.66;;;16.27;100.00
70009;BME280;59542;37.950;-122.338;2023-11-19T01:16:54;101382.19;;;16.34;100.00
70009;BME280;59542;37.950;-122.338;2023-11-19T01:19:24;101379.72;;;16.33;100.00
70009;BME280;59542;37.950;-122.338;2023-11-19T01:21:50;101379.94;;;16.31;100.00
70009;BME280;59542;37.950;-122.338;2023-11-19T01:24:17;101384.16;;;16.27;100.00
70009;BME280;59542;37.950;-122.338;2023-11-19T01:26:44;101382.50;;;16.26;100.00
70009;BME280;59542;37.950;-122.338;2023-11-19T01:29:14;101388.38;;;16.23;100.00
70009;BME280;59542;37.950;-122.338;2023-11-19T01:31:45;101404.97;;;16.27;100.00
70009;BME280;59542;37.950;-122.338;2023-11-19T01:34:12;101413.16;;;16.32;100.00
70009;BME280;59542;37.950;-122.338;2023-11-19T01:36:38;101418.34;;;16.22;100.00
70009;BME280;59542;37.950;-122.338;2023-11-19T01:39:05;101410.38;;;16.27;100.00
70009;BME280;59542;37.950;-122.338;2023-11-19T01:41:34;101415.78;;;16.27;100.00
70009;BME280;59542;37.950;-122.338;2023-11-19T01:44:01;101415.81;;;16.39;100.00
70009;BME280;59542;37.950;-122.338;2023-11-19T01:46:29;101412.28;;;16.38;100.00
70009;BME280;59542;37.950;-122.338;2023-11-19T01:48:55;101412.50;;;16.36;100.00
70009;BME280;59542;37.950;-122.338;2023-11-19T01:51:23;101411.09;;;16.34;100.00
70009;BME280;59542;37.950;-122.338;2023-11-19T01:53:50;101416.22;;;16.24;100.00
70009;BME280;59542;37.950;-122.338;2023-11-19T01:56:18;101417.84;;;16.25;100.00
70009;BME280;59542;37.950;-122.338;2023-11-19T01:58:45;101421.47;;;16.19;100.00
70009;BME280;59542;37.950;-122.338;2023-11-19T02:01:13;101424.84;;;16.14;100.00
70009;BME280;59542;37.950;-122.338;2023-11-19T02:03:39;101424.50;;;16.10;100.00
70009;BME280;59542;37.950;-122.338;2023-11-19T02:06:06;101420.28;;;16.15;100.00
70009;BME280;59542;37.950;-122.338;2023-11-19T02:08:33;101423.66;;;16.10;100.00
70009;BME280;59542;37.950;-122.338;2023-11-19T02:11:00;101423.53;;;16.05;100.00
70009;BME280;59542;37.950;-122.338;2023-11-19T02:13:26;101427.75;;;16.01;100.00
70009;BME280;59542;37.950;-122.338;2023-11-19T02:15:53;101431.44;;;15.88;100.00
70009;BME280;59542;37.950;-122.338;2023-11-19T02:18:24;101436.59;;;15.90;100.00
70009;BME280;59542;37.950;-122.338;2023-11-19T02:20:54;101435.50;;;15.79;100.00
70009;BME280;59542;37.950;-122.338;2023-11-19T02:23:21;101450.72;;;15.73;100.00
70009;BME280;59542;37.950;-122.338;2023-11-19T02:26:00;101455.22;;;15.79;100.00
70009;BME280;59542;37.950;-122.338;2023-11-19T02:28:28;101461.00;;;15.83;100.00
70009;BME280;59542;37.950;-122.338;2023-11-19T02:30:54;101459.78;;;15.79;100.00
70009;BME280;59542;37.950;-122.338;2023-11-19T02:33:20;101459.94;;;15.84;100.00
70009;BME280;59542;37.950;-122.338;2023-11-19T02:35:46;101475.00;;;15.73;100.00
70009;BME280;59542;37.950;-122.338;2023-11-19T02:38:13;101472.75;;;15.70;100.00
70009;BME280;59542;37.950;-122.338;2023-11-19T02:40:39;101473.88;;;15.81;100.00
70009;BME280;59542;37.950;-122.338;2023-11-19T02:43:06;101474.09;;;15.79;100.00
70009;BME280;59542;37.950;-122.338;2023-11-19T02:45:32;101477.53;;;15.87;100.00
70009;BME280;59542;37.950;-122.338;2023-11-19T02:47:58;101470.66;;;15.91;100.00
70009;BME280;59542;37.950;-122.338;2023-11-19T02:50:27;101480.41;;;15.92;100.00
70009;BME280;59542;37.950;-122.338;2023-11-19T02:52:55;101484.88;;;15.98;100.00
70009;BME280;59542;37.950;-122.338;2023-11-19T02:55:25;101493.31;;;15.90;100.00
70009;BME280;59542;37.950;-122.338;2023-11-19T02:57:53;101497.78;;;15.96;100.00
70009;BME280;59542;37.950;-122.338;2023-11-19T03:00:22;101494.63;;;15.99;100.00
70009;BME280;59542;37.950;-122.338;2023-11-19T03:03:01;101500.94;;;15.93;100.00
70009;BME280;59542;37.950;-122.338;2023-11-19T03:05:46;101505.22;;;16.00;100.00
70009;BME280;59542;37.950;-122.338;2023-11-19T03:08:13;101500.41;;;16.02;100.00
70009;BME280;59542;37.950;-122.338;2023-11-19T03:10:39;101510.47;;;15.95;100.00
70009;BME280;59542;37.950;-122.338;2023-11-19T03:13:11;101520.00;;;15.98;100.00
70009;BME280;59542;37.950;-122.338;2023-11-19T03:15:40;101535.97;;;15.99;100.00
70009;BME280;59542;37.950;-122.338;2023-11-19T03:18:06;101537.00;;;15.98;100.00
70009;BME280;59542;37.950;-122.338;2023-11-19T03:20:33;101538.81;;;15.86;100.00
70009;BME280;59542;37.950;-122.338;2023-11-19T03:22:59;101538.66;;;15.81;100.00
70009;BME280;59542;37.950;-122.338;2023-11-19T03:25:27;101530.44;;;15.94;100.00
70009;BME280;59542;37.950;-122.338;2023-11-19T03:27:59;101553.91;;;15.94;100.00
70009;BME280;59542;37.950;-122.338;2023-11-19T03:30:26;101563.25;;;15.73;100.00
70009;BME280;59542;37.950;-122.338;2023-11-19T03:32:55;101566.78;;;15.73;100.00
70009;BME280;59542;37.950;-122.338;2023-11-19T03:35:21;101573.22;;;15.72;100.00
70009;BME280;59542;37.950;-122.338;2023-11-19T03:37:48;101576.00;;;15.84;100.00
70009;BME280;59542;37.950;-122.338;2023-11-19T03:40:14;101579.75;;;15.83;100.00
70009;BME280;59542;37.950;-122.338;2023-11-19T03:42:40;101588.03;;;15.88;100.00
70009;BME280;59542;37.950;-122.338;2023-11-19T03:45:09;101579.38;;;15.79;100.00
70009;BME280;59542;37.950;-122.338;2023-11-19T03:47:36;101572.34;;;15.78;100.00
70009;BME280;59542;37.950;-122.338;2023-11-19T03:50:02;101576.28;;;15.76;100.00
70009;BME280;59542;37.950;-122.338;2023-11-19T03:52:29;101577.25;;;15.63;99.63
70009;BME280;59542;37.950;-122.338;2023-11-19T03:54:55;101584.91;;;15.59;98.39
70009;BME280;59542;37.950;-122.338;2023-11-19T03:57:23;101582.84;;;15.62;98.55
70009;BME280;59542;37.950;-122.338;2023-11-19T03:59:49;101601.06;;;15.41;99.34
70009;BME280;59542;37.950;-122.338;2023-11-19T04:02:16;101606.97;;;15.25;98.73
70009;BME280;59542;37.950;-122.338;2023-11-19T04:04:43;101606.31;;;15.29;96.53
70009;BME280;59542;37.950;-122.338;2023-11-19T04:07:09;101619.72;;;15.43;95.00
70009;BME280;59542;37.950;-122.338;2023-11-19T04:09:35;101613.38;;;15.30;97.20
70009;BME280;59542;37.950;-122.338;2023-11-19T04:12:03;101609.44;;;15.26;97.14
70009;BME280;59542;37.950;-122.338;2023-11-19T04:14:30;101625.44;;;15.28;98.45
70009;BME280;59542;37.950;-122.338;2023-11-19T04:16:56;101630.44;;;15.24;100.00
70009;BME280;59542;37.950;-122.338;2023-11-19T04:19:22;101625.22;;;15.29;97.23
70009;BME280;59542;37.950;-122.338;2023-11-19T04:21:48;101661.31;;;15.28;96.30
70009;BME280;59542;37.950;-122.338;2023-11-19T04:24:15;101670.47;;;15.27;97.64
70009;BME280;59542;37.950;-122.338;2023-11-19T04:26:42;101700.13;;;15.21;99.68
70009;BME280;59542;37.950;-122.338;2023-11-19T04:29:14;101707.91;;;15.04;100.00
70009;BME280;59542;37.950;-122.338;2023-11-19T04:31:43;101714.69;;;14.68;97.74
70009;BME280;59542;37.950;-122.338;2023-11-19T04:34:10;101725.50;;;14.35;94.02
70009;BME280;59542;37.950;-122.338;2023-11-19T04:36:37;101721.16;;;14.21;94.58
70009;BME280;59542;37.950;-122.338;2023-11-19T04:39:03;101734.63;;;14.08;95.54
70009;BME280;59542;37.950;-122.338;2023-11-19T04:41:49;101738.16;;;13.95;93.98
70009;BME280;59542;37.950;-122.338;2023-11-19T04:44:17;101742.88;;;13.80;95.44
70009;BME280;59542;37.950;-122.338;2023-11-19T04:46:43;101753.22;;;13.76;94.54
70009;BME280;59542;37.950;-122.338;2023-11-19T04:49:10;101761.72;;;13.73;93.39
70009;BME280;59542;37.950;-122.338;2023-11-19T04:51:40;101767.50;;;13.63;92.92
70009;BME280;59542;37.950;-122.338;2023-11-19T04:54:08;101768.91;;;13.59;93.29
70009;BME280;59542;37.950;-122.338;2023-11-19T04:56:35;101770.38;;;13.55;91.22
70009;BME280;59542;37.950;-122.338;2023-11-19T04:59:03;101777.59;;;13.55;92.53
70009;BME280;59542;37.950;-122.338;2023-11-19T05:01:32;101781.16;;;13.55;92.25
70009;BME280;59542;37.950;-122.338;2023-11-19T05:03:59;101781.31;;;13.54;92.75
70009;BME280;59542;37.950;-122.338;2023-11-19T05:06:29;101789.16;;;13.48;88.41
70009;BME280;59542;37.950;-122.338;2023-11-19T05:08:59;101802.00;;;13.46;88.09
70009;BME280;59542;37.950;-122.338;2023-11-19T05:11:36;101798.84;;;13.36;89.93
70009;BME280;59542;37.950;-122.338;2023-11-19T05:14:05;101816.25;;;13.40;88.61
70009;BME280;59542;37.950;-122.338;2023-11-19T05:16:32;101821.19;;;13.37;90.01
70009;BME280;59542;37.950;-122.338;2023-11-19T05:18:58;101830.53;;;13.47;90.47
70009;BME280;59542;37.950;-122.338;2023-11-19T05:21:24;101832.84;;;13.51;89.27
70009;BME280;59542;37.950;-122.338;2023-11-19T05:23:50;101846.91;;;13.46;89.43
70009;BME280;59542;37.950;-122.338;2023-11-19T05:26:21;101853.09;;;13.46;87.09
70009;BME280;59542;37.950;-122.338;2023-11-19T05:28:48;101867.81;;;13.51;87.49
70009;BME280;59542;37.950;-122.338;2023-11-19T05:31:16;101879.41;;;13.51;87.07
70009;BME280;59542;37.950;-122.338;2023-11-19T05:33:42;101886.41;;;13.45;84.12
70009;BME280;59542;37.950;-122.338;2023-11-19T05:36:11;101893.78;;;13.37;82.85
70009;BME280;59542;37.950;-122.338;2023-11-19T05:38:38;101902.66;;;13.31;83.81
70009;BME280;59542;37.950;-122.338;2023-11-19T05:41:05;101908.00;;;13.24;83.77
70009;BME280;59542;37.950;-122.338;2023-11-19T05:43:32;101928.69;;;13.24;83.47
70009;BME280;59542;37.950;-122.338;2023-11-19T05:45:58;101928.41;;;13.18;83.77
70009;BME280;59542;37.950;-122.338;2023-11-19T05:48:26;101935.41;;;13.13;83.63
70009;BME280;59542;37.950;-122.338;2023-11-19T05:50:52;101932.50;;;13.14;82.51
70009;BME280;59542;37.950;-122.338;2023-11-19T05:53:19;101939.94;;;13.12;84.14
70009;BME280;59542;37.950;-122.338;2023-11-19T05:55:45;101943.41;;;13.06;85.10
70009;BME280;59542;37.950;-122.338;2023-11-19T05:58:24;101946.13;;;13.06;84.59
70009;BME280;59542;37.950;-122.338;2023-11-19T06:00:52;101952.94;;;13.09;84.31
70009;BME280;59542;37.950;-122.338;2023-11-19T06:03:18;101947.84;;;13.20;84.52
70009;BME280;59542;37.950;-122.338;2023-11-19T06:05:45;101957.16;;;13.18;83.57
70009;BME280;59542;37.950;-122.338;2023-11-19T06:08:12;101965.34;;;13.10;85.23
70009;BME280;59542;37.950;-122.338;2023-11-19T06:10:42;101961.22;;;13.07;84.50
70009;BME280;59542;37.950;-122.338;2023-11-19T06:13:08;101966.59;;;13.07;85.52
70009;BME280;59542;37.950;-122.338;2023-11-19T06:15:36;101981.25;;;13.05;85.19
70009;BME280;59542;37.950;-122.338;2023-11-19T06:18:02;101995.31;;;13.07;84.15
70009;BME280;59542;37.950;-122.338;2023-11-19T06:20:30;101993.59;;;12.99;84.31
70009;BME280;59542;37.950;-122.338;2023-11-19T06:22:57;101992.75;;;12.99;83.84
70009;BME280;59542;37.950;-122.338;2023-11-19T06:25:24;102001.47;;;13.01;84.12
70009;BME280;59542;37.950;-122.338;2023-11-19T06:27:51;102005.56;;;12.97;82.46
70009;BME280;59542;37.950;-122.338;2023-11-19T06:30:18;102000.34;;;12.88;83.22
70009;BME280;59542;37.950;-122.338;2023-11-19T06:32:44;102001.94;;;12.83;84.32
70009;BME280;59542;37.950;-122.338;2023-11-19T06:35:10;102004.47;;;12.91;83.23
70009;BME280;59542;37.950;-122.338;2023-11-19T06:37:40;102004.94;;;12.94;82.90
70009;BME280;59542;37.950;-122.338;2023-11-19T06:40:07;102014.00;;;12.93;81.83
70009;BME280;59542;37.950;-122.338;2023-11-19T06:42:38;102012.16;;;12.94;81.69
70009;BME280;59542;37.950;-122.338;2023-11-19T06:45:05;102026.88;;;12.77;81.65
70009;BME280;59542;37.950;-122.338;2023-11-19T06:47:32;102041.88;;;12.71;82.27
70009;BME280;59542;37.950;-122.338;2023-11-19T06:49:58;102042.41;;;12.81;81.54
70009;BME280;59542;37.950;-122.338;2023-11-19T06:52:25;102045.81;;;12.68;83.38
70009;BME280;59542;37.950;-122.338;2023-11-19T06:54:51;102047.25;;;12.71;83.06
70009;BME280;59542;37.950;-122.338;2023-11-19T06:57:17;102048.69;;;12.67;81.56
70009;BME280;59542;37.950;-122.338;2023-11-19T06:59:43;102052.00;;;12.69;82.93
70009;BME280;59542;37.950;-122.338;2023-11-19T07:02:09;102061.16;;;12.75;81.97
70009;BME280;59542;37.950;-122.338;2023-11-19T07:04:36;102063.97;;;12.66;82.03
70009;BME280;59542;37.950;-122.338;2023-11-19T07:07:02;102063.00;;;12.74;80.74
70009;BME280;59542;37.950;-122.338;2023-11-19T07:09:29;102064.59;;;12.68;81.76
70009;BME280;59542;37.950;-122.338;2023-11-19T07:11:55;102070.03;;;12.75;80.71
70009;BME280;59542;37.950;-122.338;2023-11-19T07:14:21;102063.97;;;12.66;80.38
70009;BME280;59542;37.950;-122.338;2023-11-19T07:16:49;102078.25;;;12.67;80.04
70009;BME280;59542;37.950;-122.338;2023-11-19T07:19:16;102079.91;;;12.68;80.11
70009;BME280;59542;37.950;-122.338;2023-11-19T07:21:42;102079.63;;;12.63;81.19
70009;BME280;59542;37.950;-122.338;2023-11-19T07:24:10;102088.31;;;12.65;79.52
70009;BME280;59542;37.950;-122.338;2023-11-19T07:26:43;102094.16;;;12.68;80.39
70009;BME280;59542;37.950;-122.338;2023-11-19T07:29:10;102104.84;;;12.62;80.41
70009;BME280;59542;37.950;-122.338;2023-11-19T07:31:36;102108.34;;;12.62;81.53
70009;BME280;59542;37.950;-122.338;2023-11-19T07:34:02;102112.97;;;12.68;77.66
70009;BME280;59542;37.950;-122.338;2023-11-19T07:36:30;102120.75;;;12.63;76.96
70009;BME280;59542;37.950;-122.338;2023-11-19T07:38:58;102118.75;;;12.51;77.28
70009;BME280;59542;37.950;-122.338;2023-11-19T07:41:24;102134.38;;;12.62;76.87
70009;BME280;59542;37.950;-122.338;2023-11-19T07:43:51;102139.75;;;12.62;75.90
70009;BME280;59542;37.950;-122.338;2023-11-19T07:46:18;102141.47;;;12.69;76.05
70009;BME280;59542;37.950;-122.338;2023-11-19T07:48:47;102143.34;;;12.69;75.30
70009;BME280;59542;37.950;-122.338;2023-11-19T07:51:14;102147.53;;;12.57;76.37
70009;BME280;59542;37.950;-122.338;2023-11-19T07:53:41;102155.88;;;12.62;76.55
70009;BME280;59542;37.950;-122.338;2023-11-19T07:56:08;102156.50;;;12.49;77.29
70009;BME280;59542;37.950;-122.338;2023-11-19T07:58:34;102162.75;;;12.50;77.24
70009;BME280;59542;37.950;-122.338;2023-11-19T08:01:01;102154.84;;;12.48;77.60
70009;BME280;59542;37.950;-122.338;2023-11-19T08:03:30;102161.72;;;12.51;78.49
70009;BME280;59542;37.950;-122.338;2023-11-19T08:05:56;102152.16;;;12.48;77.95
70009;BME280;59542;37.950;-122.338;2023-11-19T08:08:23;102162.28;;;12.46;78.87
70009;BME280;59542;37.950;-122.338;2023-11-19T08:10:49;102157.38;;;12.50;78.28
70009;BME280;59542;37.950;-122.338;2023-11-19T08:13:18;102157.44;;;12.27;80.25
70009;BME280;59542;37.950;-122.338;2023-11-19T08:15:45;102161.78;;;12.42;79.82
70009;BME280;59542;37.950;-122.338;2023-11-19T08:18:12;102162.34;;;12.38;79.25
70009;BME280;59542;37.950;-122.338;2023-11-19T08:20:39;102165.50;;;12.41;79.52
70009;BME280;59542;37.950;-122.338;2023-11-19T08:23:06;102171.34;;;12.30;79.62
70009;BME280;59542;37.950;-122.338;2023-11-19T08:25:32;102169.78;;;12.51;77.54
70009;BME280;59542;37.950;-122.338;2023-11-19T08:28:01;102170.22;;;12.25;79.51
70009;BME280;59542;37.950;-122.338;2023-11-19T08:30:29;102176.06;;;12.28;80.12
70009;BME280;59542;37.950;-122.338;2023-11-19T08:32:56;102187.16;;;12.25;79.74
70009;BME280;59542;37.950;-122.338;2023-11-19T08:35:22;102194.38;;;12.25;80.31
70009;BME280;59542;37.950;-122.338;2023-11-19T08:37:49;102191.59;;;12.18;80.89
70009;BME280;59542;37.950;-122.338;2023-11-19T08:40:15;102192.88;;;12.07;81.86
70009;BME280;59542;37.950;-122.338;2023-11-19T08:42:43;102206.50;;;12.06;82.15
70009;BME280;59542;37.950;-122.338;2023-11-19T08:45:09;102202.84;;;11.99;82.35
70009;BME280;59542;37.950;-122.338;2023-11-19T08:47:37;102199.88;;;11.94;82.46
70009;BME280;59542;37.950;-122.338;2023-11-19T08:50:03;102206.47;;;11.91;82.63
70009;BME280;59542;37.950;-122.338;2023-11-19T08:52:30;102208.13;;;11.92;82.57
70009;BME280;59542;37.950;-122.338;2023-11-19T08:54:57;102210.69;;;11.85;82.63
70009;BME280;59542;37.950;-122.338;2023-11-19T08:57:23;102212.56;;;11.85;83.09
70009;BME280;59542;37.950;-122.338;2023-11-19T08:59:49;102210.25;;;11.74;83.56
70009;BME280;59542;37.950;-122.338;2023-11-19T09:02:15;102211.59;;;11.55;84.22
70009;BME280;59542;37.950;-122.338;2023-11-19T09:04:42;102201.69;;;11.55;84.15
70009;BME280;59542;37.950;-122.338;2023-11-19T09:07:08;102203.81;;;11.60;84.21
70009;BME280;59542;37.950;-122.338;2023-11-19T09:09:38;102201.22;;;11.52;83.87
70009;BME280;59542;37.950;-122.338;2023-11-19T09:12:04;102204.13;;;11.42;84.14
70009;BME280;59542;37.950;-122.338;2023-11-19T09:14:31;102215.56;;;11.36;84.60
70009;BME280;59542;37.950;-122.338;2023-11-19T09:16:58;102217.28;;;11.29;84.82
70009;BME280;59542;37.950;-122.338;2023-11-19T09:19:24;102222.53;;;11.22;85.32
70009;BME280;59542;37.950;-122.338;2023-11-19T09:21:52;102239.13;;;11.18;85.74
70009;BME280;59542;37.950;-122.338;2023-11-19T09:24:19;102233.97;;;11.16;86.24
70009;BME280;59542;37.950;-122.338;2023-11-19T09:26:45;102242.16;;;11.15;86.54
70009;BME280;59542;37.950;-122.338;2023-11-19T09:29:11;102242.81;;;11.17;87.09
70009;BME280;59542;37.950;-122.338;2023-11-19T09:31:40;102246.75;;;10.98;87.47
70009;BME280;59542;37.950;-122.338;2023-11-19T09:34:06;102237.22;;;10.95;87.70
70009;BME280;59542;37.950;-122.338;2023-11-19T09:36:33;102240.56;;;10.42;91.93
70009;BME280;59542;37.950;-122.338;2023-11-19T09:38:59;102238.09;;;10.24;92.74
70009;BME280;59542;37.950;-122.338;2023-11-19T09:41:27;102244.09;;;10.50;91.22
70009;BME280;59542;37.950;-122.338;2023-11-19T09:43:53;102251.59;;;10.47;91.05
70009;BME280;59542;37.950;-122.338;2023-11-19T09:46:21;102256.63;;;10.42;91.23
70009;BME280;59542;37.950;-122.338;2023-11-19T09:48:52;102267.69;;;10.39;91.34
70009;BME280;59542;37.950;-122.338;2023-11-19T09:51:20;102263.50;;;10.20;92.30
70009;BME280;59542;37.950;-122.338;2023-11-19T09:53:48;102266.66;;;10.15;92.06
70009;BME280;59542;37.950;-122.338;2023-11-19T09:56:15;102271.38;;;10.13;92.79
70009;BME280;59542;37.950;-122.338;2023-11-19T09:58:42;102270.50;;;10.21;92.35
70009;BME280;59542;37.950;-122.338;2023-11-19T10:01:08;102267.19;;;10.19;92.24
70009;BME280;59542;37.950;-122.338;2023-11-19T10:03:38;102268.06;;;10.27;91.33
70009;BME280;59542;37.950;-122.338;2023-11-19T10:06:09;102273.22;;;10.13;91.99
70009;BME280;59542;37.950;-122.338;2023-11-19T10:08:38;102262.69;;;10.11;91.91
70009;BME280;59542;37.950;-122.338;2023-11-19T10:11:06;102256.81;;;10.08;91.75
70009;BME280;59542;37.950;-122.338;2023-11-19T10:13:35;102265.69;;;10.16;91.32
70009;BME280;59542;37.950;-122.338;2023-11-19T10:16:29;102262.66;;;9.87;93.02
70009;BME280;59542;37.950;-122.338;2023-11-19T10:18:59;102275.31;;;9.44;95.26
70009;BME280;59542;37.950;-122.338;2023-11-19T10:21:25;102282.34;;;9.45;95.57
70009;BME280;59542;37.950;-122.338;2023-11-19T10:23:56;102284.38;;;9.67;94.76
70009;BME280;59542;37.950;-122.338;2023-11-19T10:26:26;102292.06;;;9.70;94.23
70009;BME280;59542;37.950;-122.338;2023-11-19T10:28:53;102294.03;;;9.60;95.00
70009;BME280;59542;37.950;-122.338;2023-11-19T10:31:20;102294.03;;;9.60;94.80
70009;BME280;59542;37.950;-122.338;2023-11-19T10:33:55;102300.25;;;9.77;93.73
70009;BME280;59542;37.950;-122.338;2023-11-19T10:36:22;102292.41;;;9.75;92.93
70009;BME280;59542;37.950;-122.338;2023-11-19T10:38:56;102293.72;;;9.63;92.97
70009;BME280;59542;37.950;-122.338;2023-11-19T10:41:30;102305.03;;;9.49;93.61
70009;BME280;59542;37.950;-122.338;2023-11-19T10:43:57;102305.03;;;9.49;93.16
70009;BME280;59542;37.950;-122.338;2023-11-19T10:46:39;102312.22;;;9.40;94.40
70009;BME280;59542;37.950;-122.338;2023-11-19T10:49:09;102321.59;;;9.44;94.06
70009;BME280;59542;37.950;-122.338;2023-11-19T10:51:36;102320.84;;;9.26;94.48
70009;BME280;59542;37.950;-122.338;2023-11-19T10:54:08;102322.31;;;9.20;94.55
70009;BME280;59542;37.950;-122.338;2023-11-19T10:56:35;102327.63;;;9.12;94.65
70009;BME280;59542;37.950;-122.338;2023-11-19T10:59:02;102301.94;;;9.19;94.47
70009;BME280;59542;37.950;-122.338;2023-11-19T11:01:53;102303.53;;;9.04;96.28
70009;BME280;59542;37.950;-122.338;2023-11-19T11:04:23;102292.56;;;9.07;95.66
70009;BME280;59542;37.950;-122.338;2023-11-19T11:06:52;102299.19;;;8.95;95.52
70009;BME280;59542;37.950;-122.338;2023-11-19T11:09:20;102296.22;;;9.06;94.98
70009;BME280;59542;37.950;-122.338;2023-11-19T11:11:47;102295.69;;;8.94;95.79
70009;BME280;59542;37.950;-122.338;2023-11-19T11:14:14;102312.56;;;8.77;96.34
70009;BME280;59542;37.950;-122.338;2023-11-19T11:16:46;102320.66;;;8.85;96.19
70009;BME280;59542;37.950;-122.338;2023-11-19T11:19:16;102319.84;;;8.93;95.79
70009;BME280;59542;37.950;-122.338;2023-11-19T11:21:47;102316.22;;;8.94;95.35
70009;BME280;59542;37.950;-122.338;2023-11-19T11:25:08;102315.19;;;8.61;97.25
70009;BME280;59542;37.950;-122.338;2023-11-19T11:27:35;102314.28;;;8.52;98.58
70009;BME280;59542;37.950;-122.338;2023-11-19T11:30:28;102325.06;;;8.68;97.09
70009;BME280;59542;37.950;-122.338;2023-11-19T11:33:15;102333.91;;;8.69;97.26
70009;BME280;59542;37.950;-122.338;2023-11-19T11:36:19;102346.03;;;8.63;97.17
70009;BME280;59542;37.950;-122.338;2023-11-19T11:38:49;102349.00;;;8.60;98.02
70009;BME280;59542;37.950;-122.338;2023-11-19T11:41:20;102357.38;;;8.39;100.00
70009;BME280;59542;37.950;-122.338;2023-11-19T11:43:48;102354.34;;;8.60;98.42
70009;BME280;59542;37.950;-122.338;2023-11-19T11:49:06;102363.88;;;8.63;97.66
70009;BME280;59542;37.950;-122.338;2023-11-19T11:54:26;102373.84;;;8.79;97.12
70009;BME280;59542;37.950;-122.338;2023-11-19T11:57:10;102373.19;;;8.59;98.02
70009;BME280;59542;37.950;-122.338;2023-11-19T11:59:43;102379.22;;;8.61;97.56
70009;BME280;59542;37.950;-122.338;2023-11-19T12:02:16;102379.63;;;8.48;98.84
70009;BME280;59542;37.950;-122.338;2023-11-19T12:04:47;102384.09;;;8.30;99.90
70009;BME280;59542;37.950;-122.338;2023-11-19T12:07:16;102394.13;;;8.45;99.63
70009;BME280;59542;37.950;-122.338;2023-11-19T12:09:53;102388.00;;;8.53;98.96
70009;BME280;59542;37.950;-122.338;2023-11-19T12:12:33;102390.00;;;8.51;98.37
70009;BME280;59542;37.950;-122.338;2023-11-19T12:15:00;102397.28;;;8.31;99.35
70009;BME280;59542;37.950;-122.338;2023-11-19T12:20:04;102408.03;;;8.21;99.11
70009;BME280;59542;37.950;-122.338;2023-11-19T12:22:41;102407.75;;;8.42;98.12
70009;BME280;59542;37.950;-122.338;2023-11-19T12:25:09;102403.56;;;8.40;97.10
70009;BME280;59542;37.950;-122.338;2023-11-19T12:27:36;102390.44;;;8.29;97.14
70009;BME280;59542;37.950;-122.338;2023-11-19T12:30:03;102387.06;;;8.27;96.99
70009;BME280;59542;37.950;-122.338;2023-11-19T12:32:38;102405.06;;;8.25;97.01